sensor_id;sensor_type;location;lat;lon;timestamp;temperature;humidity
30206;DHT22;17010;51.306;3.150;2023-05-07T00:02:03;16.00;99.90
30206;DHT22;17010;51.306;3.150;2023-05-07T00:04:29;16.00;99.90
30206;DHT22;17010;51.306;3.150;2023-05-07T00:07:02;16.00;99.90
30206;DHT22;17010;51.306;3.150;2023-05-07T00:09:29;16.00;99.90
30206;DHT22;17010;51.306;3.150;2023-05-07T00:11:55;16.00;99.90
30206;DHT22;17010;51.306;3.150;2023-05-07T00:14:21;16.10;99.90
30206;DHT22;17010;51.306;3.150;2023-05-07T00:16:49;16.00;99.90
30206;DHT22;17010;51.306;3.150;2023-05-07T00:19:15;16.00;99.90
30206;DHT22;17010;51.306;3.150;2023-05-07T00:21:43;16.00;99.90
30206;DHT22;17010;51.306;3.150;2023-05-07T00:24:09;15.90;99.90
30206;DHT22;17010;51.306;3.150;2023-05-07T00:26:35;15.90;99.90
30206;DHT22;17010;51.306;3.150;2023-05-07T00:29:02;15.90;99.90
30206;DHT22;17010;51.306;3.150;2023-05-07T00:31:28;15.90;99.90
30206;DHT22;17010;51.306;3.150;2023-05-07T00:33:54;15.90;99.90
30206;DHT22;17010;51.306;3.150;2023-05-07T00:36:20;15.90;99.90
30206;DHT22;17010;51.306;3.150;2023-05-07T00:38:46;15.90;99.90
30206;DHT22;17010;51.306;3.150;2023-05-07T00:41:12;16.00;99.90
30206;DHT22;17010;51.306;3.150;2023-05-07T00:43:38;16.00;99.90
30206;DHT22;17010;51.306;3.150;2023-05-07T00:46:05;16.00;99.90
30206;DHT22;17010;51.306;3.150;2023-05-07T00:48:31;16.00;99.90
30206;DHT22;17010;51.306;3.150;2023-05-07T00:50:58;16.00;99.90
30206;DHT22;17010;51.306;3.150;2023-05-07T00:53:24;15.90;99.90
30206;DHT22;17010;51.306;3.150;2023-05-07T00:55:50;15.90;99.90
30206;DHT22;17010;51.306;3.150;2023-05-07T00:58:17;15.80;99.90
30206;DHT22;17010;51.306;3.150;2023-05-07T01:00:43;15.80;99.90
30206;DHT22;17010;51.306;3.150;2023-05-07T01:03:09;15.80;99.90
30206;DHT22;17010;51.306;3.150;2023-05-07T01:05:36;15.80;99.90
30206;DHT22;17010;51.306;3.150;2023-05-07T01:08:02;15.80;99.90
30206;DHT22;17010;51.306;3.150;2023-05-07T01:10:29;15.70;99.90
30206;DHT22;17010;51.306;3.150;2023-05-07T01:12:57;15.70;99.90
30206;DHT22;17010;51.306;3.150;2023-05-07T01:15:25;15.70;99.90
30206;DHT22;17010;51.306;3.150;2023-05-07T01:17:53;15.60;99.90
30206;DHT22;17010;51.306;3.150;2023-05-07T01:20:22;15.60;99.90
30206;DHT22;17010;51.306;3.150;2023-05-07T01:22:48;15.50;99.90
30206;DHT22;17010;51.306;3.150;2023-05-07T01:25:15;15.50;99.90
30206;DHT22;17010;51.306;3.150;2023-05-07T01:27:42;15.50;99.90
30206;DHT22;17010;51.306;3.150;2023-05-07T01:30:08;15.50;99.90
30206;DHT22;17010;51.306;3.150;2023-05-07T01:32:48;15.50;99.90
30206;DHT22;17010;51.306;3.150;2023-05-07T01:35:20;15.50;99.90
30206;DHT22;17010;51.306;3.150;2023-05-07T01:37:49;15.50;99.90
30206;DHT22;17010;51.306;3.150;2023-05-07T01:40:19;15.40;99.90
30206;DHT22;17010;51.306;3.150;2023-05-07T01:42:46;15.40;99.90
30206;DHT22;17010;51.306;3.150;2023-05-07T01:45:14;15.30;99.90
30206;DHT22;17010;51.306;3.150;2023-05-07T01:47:41;15.30;99.90
30206;DHT22;17010;51.306;3.150;2023-05-07T01:50:08;15.20;99.90
30206;DHT22;17010;51.306;3.150;2023-05-07T01:52:40;15.20;99.90
30206;DHT22;17010;51.306;3.150;2023-05-07T01:55:06;15.20;99.90
30206;DHT22;17010;51.306;3.150;2023-05-07T01:57:33;15.20;99.90
30206;DHT22;17010;51.306;3.150;2023-05-07T01:59:59;15.10;99.90
30206;DHT22;17010;51.306;3.150;2023-05-07T02:02:25;15.20;99.90
30206;DHT22;17010;51.306;3.150;2023-05-07T02:04:52;15.20;99.90
30206;DHT22;17010;51.306;3.150;2023-05-07T02:07:18;15.20;99.90
30206;DHT22;17010;51.306;3.150;2023-05-07T02:09:44;15.20;99.90
30206;DHT22;17010;51.306;3.150;2023-05-07T02:12:10;15.20;99.90
30206;DHT22;17010;51.306;3.150;2023-05-07T02:14:37;15.10;99.90
30206;DHT22;17010;51.306;3.150;2023-05-07T02:17:03;15.10;99.90
30206;DHT22;17010;51.306;3.150;2023-05-07T02:19:29;15.10;99.90
30206;DHT22;17010;51.306;3.150;2023-05-07T02:21:56;15.00;99.90
30206;DHT22;17010;51.306;3.150;2023-05-07T02:24:22;15.00;99.90
30206;DHT22;17010;51.306;3.150;2023-05-07T02:26:48;14.90;99.90
30206;DHT22;17010;51.306;3.150;2023-05-07T02:29:15;14.90;99.90
30206;DHT22;17010;51.306;3.150;2023-05-07T02:31:42;14.90;99.90
30206;DHT22;17010;51.306;3.150;2023-05-07T02:34:08;14.80;99.90
30206;DHT22;17010;51.306;3.150;2023-05-07T02:36:34;14.70;99.90
30206;DHT22;17010;51.306;3.150;2023-05-07T02:39:01;14.70;99.90
30206;DHT22;17010;51.306;3.150;2023-05-07T02:41:28;14.70;99.90
30206;DHT22;17010;51.306;3.150;2023-05-07T02:43:54;14.60;99.90
30206;DHT22;17010;51.306;3.150;2023-05-07T02:46:20;14.60;99.90
30206;DHT22;17010;51.306;3.150;2023-05-07T02:48:46;14.60;99.90
30206;DHT22;17010;51.306;3.150;2023-05-07T02:51:14;14.50;99.90
30206;DHT22;17010;51.306;3.150;2023-05-07T02:53:40;14.50;99.90
30206;DHT22;17010;51.306;3.150;2023-05-07T02:56:06;14.50;99.90
30206;DHT22;17010;51.306;3.150;2023-05-07T02:58:33;14.40;99.90
30206;DHT22;17010;51.306;3.150;2023-05-07T03:00:59;14.40;99.90
30206;DHT22;17010;51.306;3.150;2023-05-07T03:03:25;14.30;99.90
30206;DHT22;17010;51.306;3.150;2023-05-07T03:05:51;14.30;99.90
30206;DHT22;17010;51.306;3.150;2023-05-07T03:08:18;14.30;99.90
30206;DHT22;17010;51.306;3.150;2023-05-07T03:10:44;14.30;99.90
30206;DHT22;17010;51.306;3.150;2023-05-07T03:13:11;14.40;99.90
30206;DHT22;17010;51.306;3.150;2023-05-07T03:15:37;14.40;99.90
30206;DHT22;17010;51.306;3.150;2023-05-07T03:18:03;14.50;99.90
30206;DHT22;17010;51.306;3.150;2023-05-07T03:20:30;14.50;99.90
30206;DHT22;17010;51.306;3.150;2023-05-07T03:22:56;14.60;99.90
30206;DHT22;17010;51.306;3.150;2023-05-07T03:25:23;14.70;99.90
30206;DHT22;17010;51.306;3.150;2023-05-07T03:27:49;14.70;99.90
30206;DHT22;17010;51.306;3.150;2023-05-07T03:30:17;14.70;99.90
30206;DHT22;17010;51.306;3.150;2023-05-07T03:32:44;14.70;99.90
30206;DHT22;17010;51.306;3.150;2023-05-07T03:35:10;14.70;99.90
30206;DHT22;17010;51.306;3.150;2023-05-07T03:37:38;14.70;99.90
30206;DHT22;17010;51.306;3.150;2023-05-07T03:40:06;14.70;99.90
30206;DHT22;17010;51.306;3.150;2023-05-07T03:42:33;14.70;99.90
30206;DHT22;17010;51.306;3.150;2023-05-07T03:45:00;14.70;99.90
30206;DHT22;17010;51.306;3.150;2023-05-07T03:47:26;14.70;99.90
30206;DHT22;17010;51.306;3.150;2023-05-07T03:49:52;14.70;99.90
30206;DHT22;17010;51.306;3.150;2023-05-07T03:52:20;14.70;99.90
30206;DHT22;17010;51.306;3.150;2023-05-07T03:54:50;14.80;99.90
30206;DHT22;17010;51.306;3.150;2023-05-07T03:57:17;14.80;99.90
30206;DHT22;17010;51.306;3.150;2023-05-07T03:59:43;14.80;99.90
30206;DHT22;17010;51.306;3.150;2023-05-07T04:02:10;14.80;99.90
30206;DHT22;17010;51.306;3.150;2023-05-07T04:04:36;14.90;99.90
30206;DHT22;17010;51.306;3.150;2023-05-07T04:07:02;14.80;99.90
30206;DHT22;17010;51.306;3.150;2023-05-07T04:09:29;14.80;99.90
30206;DHT22;17010;51.306;3.150;2023-05-07T04:11:55;14.80;99.90
30206;DHT22;17010;51.306;3.150;2023-05-07T04:14:21;14.80;99.90
30206;DHT22;17010;51.306;3.150;2023-05-07T04:16:47;14.80;99.90
30206;DHT22;17010;51.306;3.150;2023-05-07T04:19:14;14.70;99.90
30206;DHT22;17010;51.306;3.150;2023-05-07T04:21:40;14.70;99.90
30206;DHT22;17010;51.306;3.150;2023-05-07T04:24:07;14.80;99.90
30206;DHT22;17010;51.306;3.150;2023-05-07T04:26:33;14.80;99.90
30206;DHT22;17010;51.306;3.150;2023-05-07T04:28:59;14.90;99.90
30206;DHT22;17010;51.306;3.150;2023-05-07T04:31:26;15.00;99.90
30206;DHT22;17010;51.306;3.150;2023-05-07T04:33:52;15.00;99.90
30206;DHT22;17010;51.306;3.150;2023-05-07T04:36:18;15.00;99.90
30206;DHT22;17010;51.306;3.150;2023-05-07T04:38:44;15.10;99.90
30206;DHT22;17010;51.306;3.150;2023-05-07T04:41:12;15.20;99.90
30206;DHT22;17010;51.306;3.150;2023-05-07T04:43:38;15.30;99.90
30206;DHT22;17010;51.306;3.150;2023-05-07T04:46:05;15.40;99.90
30206;DHT22;17010;51.306;3.150;2023-05-07T04:48:32;15.50;99.90
30206;DHT22;17010;51.306;3.150;2023-05-07T04:50:59;15.50;99.90
30206;DHT22;17010;51.306;3.150;2023-05-07T04:53:26;15.60;99.90
30206;DHT22;17010;51.306;3.150;2023-05-07T04:55:56;15.60;99.90
30206;DHT22;17010;51.306;3.150;2023-05-07T04:58:25;15.70;99.90
30206;DHT22;17010;51.306;3.150;2023-05-07T05:00:51;15.80;99.90
30206;DHT22;17010;51.306;3.150;2023-05-07T05:03:18;15.80;99.90
30206;DHT22;17010;51.306;3.150;2023-05-07T05:05:44;15.90;99.90
30206;DHT22;17010;51.306;3.150;2023-05-07T05:08:10;15.90;99.90
30206;DHT22;17010;51.306;3.150;2023-05-07T05:10:37;16.00;99.90
30206;DHT22;17010;51.306;3.150;2023-05-07T05:13:03;16.00;99.90
30206;DHT22;17010;51.306;3.150;2023-05-07T05:15:29;16.10;99.90
30206;DHT22;17010;51.306;3.150;2023-05-07T05:17:55;16.10;99.90
30206;DHT22;17010;51.306;3.150;2023-05-07T05:20:22;16.10;99.90
30206;DHT22;17010;51.306;3.150;2023-05-07T05:22:48;16.20;99.90
30206;DHT22;17010;51.306;3.150;2023-05-07T05:25:14;16.20;99.90
30206;DHT22;17010;51.306;3.150;2023-05-07T05:27:40;16.20;99.90
30206;DHT22;17010;51.306;3.150;2023-05-07T05:30:10;16.30;99.90
30206;DHT22;17010;51.306;3.150;2023-05-07T05:32:36;16.40;99.90
30206;DHT22;17010;51.306;3.150;2023-05-07T05:35:04;16.50;99.90
30206;DHT22;17010;51.306;3.150;2023-05-07T05:37:30;16.60;99.90
30206;DHT22;17010;51.306;3.150;2023-05-07T05:39:57;16.60;99.90
30206;DHT22;17010;51.306;3.150;2023-05-07T05:42:23;16.70;99.90
30206;DHT22;17010;51.306;3.150;2023-05-07T05:44:50;16.80;99.90
30206;DHT22;17010;51.306;3.150;2023-05-07T05:47:16;16.80;99.90
30206;DHT22;17010;51.306;3.150;2023-05-07T05:49:44;16.90;99.90
30206;DHT22;17010;51.306;3.150;2023-05-07T05:52:12;16.90;99.90
30206;DHT22;17010;51.306;3.150;2023-05-07T05:54:39;17.00;99.90
30206;DHT22;17010;51.306;3.150;2023-05-07T05:57:07;17.10;99.90
30206;DHT22;17010;51.306;3.150;2023-05-07T05:59:33;17.10;99.90
30206;DHT22;17010;51.306;3.150;2023-05-07T06:01:59;17.10;99.90
30206;DHT22;17010;51.306;3.150;2023-05-07T06:04:25;17.20;99.90
30206;DHT22;17010;51.306;3.150;2023-05-07T06:06:52;17.20;99.90
30206;DHT22;17010;51.306;3.150;2023-05-07T06:09:18;17.30;99.90
30206;DHT22;17010;51.306;3.150;2023-05-07T06:11:44;17.40;99.90
30206;DHT22;17010;51.306;3.150;2023-05-07T06:14:11;17.50;99.90
30206;DHT22;17010;51.306;3.150;2023-05-07T06:16:37;17.60;99.90
30206;DHT22;17010;51.306;3.150;2023-05-07T06:19:03;17.60;99.90
30206;DHT22;17010;51.306;3.150;2023-05-07T06:21:30;17.70;99.90
30206;DHT22;17010;51.306;3.150;2023-05-07T06:23:57;17.80;99.90
30206;DHT22;17010;51.306;3.150;2023-05-07T06:26:23;17.90;99.90
30206;DHT22;17010;51.306;3.150;2023-05-07T06:28:49;17.90;99.90
30206;DHT22;17010;51.306;3.150;2023-05-07T06:31:17;18.00;99.90
30206;DHT22;17010;51.306;3.150;2023-05-07T06:33:46;18.10;99.90
30206;DHT22;17010;51.306;3.150;2023-05-07T06:36:12;18.20;99.90
30206;DHT22;17010;51.306;3.150;2023-05-07T06:38:41;18.30;99.90
30206;DHT22;17010;51.306;3.150;2023-05-07T06:41:07;18.30;99.90
30206;DHT22;17010;51.306;3.150;2023-05-07T06:43:33;18.40;99.90
30206;DHT22;17010;51.306;3.150;2023-05-07T06:46:00;18.50;99.90
30206;DHT22;17010;51.306;3.150;2023-05-07T06:48:26;18.60;99.90
30206;DHT22;17010;51.306;3.150;2023-05-07T06:50:53;18.70;99.90
30206;DHT22;17010;51.306;3.150;2023-05-07T06:53:21;18.80;99.90
30206;DHT22;17010;51.306;3.150;2023-05-07T06:55:48;19.00;99.90
30206;DHT22;17010;51.306;3.150;2023-05-07T06:58:14;19.20;99.90
30206;DHT22;17010;51.306;3.150;2023-05-07T07:00:40;19.20;99.90
30206;DHT22;17010;51.306;3.150;2023-05-07T07:03:07;19.40;99.90
30206;DHT22;17010;51.306;3.150;2023-05-07T07:05:33;19.40;99.90
30206;DHT22;17010;51.306;3.150;2023-05-07T07:08:00;19.50;99.90
30206;DHT22;17010;51.306;3.150;2023-05-07T07:10:26;19.60;99.90
30206;DHT22;17010;51.306;3.150;2023-05-07T07:12:52;19.70;99.90
30206;DHT22;17010;51.306;3.150;2023-05-07T07:15:19;19.80;99.90
30206;DHT22;17010;51.306;3.150;2023-05-07T07:17:46;19.90;99.90
30206;DHT22;17010;51.306;3.150;2023-05-07T07:20:14;20.10;99.90
30206;DHT22;17010;51.306;3.150;2023-05-07T07:22:41;20.30;99.90
30206;DHT22;17010;51.306;3.150;2023-05-07T07:25:07;20.40;99.90
30206;DHT22;17010;51.306;3.150;2023-05-07T07:27:33;20.60;99.90
30206;DHT22;17010;51.306;3.150;2023-05-07T07:30:01;20.80;99.90
30206;DHT22;17010;51.306;3.150;2023-05-07T07:32:27;20.90;99.90
30206;DHT22;17010;51.306;3.150;2023-05-07T07:34:54;21.00;99.90
30206;DHT22;17010;51.306;3.150;2023-05-07T07:37:20;21.40;99.90
30206;DHT22;17010;51.306;3.150;2023-05-07T07:39:46;21.90;99.90
30206;DHT22;17010;51.306;3.150;2023-05-07T07:42:13;22.30;99.90
30206;DHT22;17010;51.306;3.150;2023-05-07T07:44:39;22.70;99.90
30206;DHT22;17010;51.306;3.150;2023-05-07T07:47:05;23.00;99.90
30206;DHT22;17010;51.306;3.150;2023-05-07T07:49:31;23.20;99.90
30206;DHT22;17010;51.306;3.150;2023-05-07T07:51:58;23.30;99.90
30206;DHT22;17010;51.306;3.150;2023-05-07T07:54:25;23.30;99.90
30206;DHT22;17010;51.306;3.150;2023-05-07T07:56:52;23.20;99.90
30206;DHT22;17010;51.306;3.150;2023-05-07T07:59:18;23.00;99.90
30206;DHT22;17010;51.306;3.150;2023-05-07T08:01:46;22.60;99.90
30206;DHT22;17010;51.306;3.150;2023-05-07T08:04:16;22.40;99.90
30206;DHT22;17010;51.306;3.150;2023-05-07T08:06:42;22.20;99.90
30206;DHT22;17010;51.306;3.150;2023-05-07T08:09:10;22.00;99.90
30206;DHT22;17010;51.306;3.150;2023-05-07T08:11:36;21.80;99.90
30206;DHT22;17010;51.306;3.150;2023-05-07T08:14:03;21.60;99.90
30206;DHT22;17010;51.306;3.150;2023-05-07T08:16:29;21.30;99.90
30206;DHT22;17010;51.306;3.150;2023-05-07T08:18:55;21.10;99.90
30206;DHT22;17010;51.306;3.150;2023-05-07T08:21:22;20.90;99.90
30206;DHT22;17010;51.306;3.150;2023-05-07T08:23:49;20.60;99.90
30206;DHT22;17010;51.306;3.150;2023-05-07T08:26:15;20.50;99.90
30206;DHT22;17010;51.306;3.150;2023-05-07T08:28:41;20.50;99.90
30206;DHT22;17010;51.306;3.150;2023-05-07T08:31:08;20.20;99.90
30206;DHT22;17010;51.306;3.150;2023-05-07T08:33:34;20.00;99.90
30206;DHT22;17010;51.306;3.150;2023-05-07T08:36:01;19.90;99.90
30206;DHT22;17010;51.306;3.150;2023-05-07T08:38:27;19.80;99.90
30206;DHT22;17010;51.306;3.150;2023-05-07T08:40:53;19.70;99.90
30206;DHT22;17010;51.306;3.150;2023-05-07T08:43:19;19.40;99.90
30206;DHT22;17010;51.306;3.150;2023-05-07T08:45:47;19.30;99.90
30206;DHT22;17010;51.306;3.150;2023-05-07T08:48:16;19.30;99.90
30206;DHT22;17010;51.306;3.150;2023-05-07T08:50:43;19.50;99.90
30206;DHT22;17010;51.306;3.150;2023-05-07T08:53:09;19.40;99.90
30206;DHT22;17010;51.306;3.150;2023-05-07T08:55:35;19.20;99.90
30206;DHT22;17010;51.306;3.150;2023-05-07T08:58:02;19.10;99.90
30206;DHT22;17010;51.306;3.150;2023-05-07T09:00:28;19.20;99.90
30206;DHT22;17010;51.306;3.150;2023-05-07T09:02:55;19.30;99.90
30206;DHT22;17010;51.306;3.150;2023-05-07T09:05:23;19.30;99.90
30206;DHT22;17010;51.306;3.150;2023-05-07T09:07:50;19.50;99.90
30206;DHT22;17010;51.306;3.150;2023-05-07T09:10:18;19.50;99.90
30206;DHT22;17010;51.306;3.150;2023-05-07T09:12:46;19.80;99.90
30206;DHT22;17010;51.306;3.150;2023-05-07T09:15:12;20.00;99.90
30206;DHT22;17010;51.306;3.150;2023-05-07T09:17:39;20.20;99.90
30206;DHT22;17010;51.306;3.150;2023-05-07T09:20:11;20.30;99.90
30206;DHT22;17010;51.306;3.150;2023-05-07T09:22:39;20.30;99.90
30206;DHT22;17010;51.306;3.150;2023-05-07T09:25:07;20.30;99.90
30206;DHT22;17010;51.306;3.150;2023-05-07T09:28:11;20.40;99.90
30206;DHT22;17010;51.306;3.150;2023-05-07T09:38:54;20.20;99.90
30206;DHT22;17010;51.306;3.150;2023-05-07T09:45:49;20.00;99.90
30206;DHT22;17010;51.306;3.150;2023-05-07T09:54:00;20.10;99.90
30206;DHT22;17010;51.306;3.150;2023-05-07T09:56:32;20.20;99.90
30206;DHT22;17010;51.306;3.150;2023-05-07T09:59:01;20.10;99.90
30206;DHT22;17010;51.306;3.150;2023-05-07T10:01:31;20.20;99.90
30206;DHT22;17010;51.306;3.150;2023-05-07T10:07:40;20.10;99.90
30206;DHT22;17010;51.306;3.150;2023-05-07T10:10:59;20.10;99.90
30206;DHT22;17010;51.306;3.150;2023-05-07T10:14:01;20.10;99.90
30206;DHT22;17010;51.306;3.150;2023-05-07T10:16:52;20.00;99.90
30206;DHT22;17010;51.306;3.150;2023-05-07T10:19:52;19.80;99.90
30206;DHT22;17010;51.306;3.150;2023-05-07T10:23:06;19.70;99.90
30206;DHT22;17010;51.306;3.150;2023-05-07T10:25:57;19.60;99.90
30206;DHT22;17010;51.306;3.150;2023-05-07T10:35:18;19.40;99.90
30206;DHT22;17010;51.306;3.150;2023-05-07T10:38:37;19.50;99.90
30206;DHT22;17010;51.306;3.150;2023-05-07T10:55:22;19.60;99.90
30206;DHT22;17010;51.306;3.150;2023-05-07T10:58:34;19.70;99.90
30206;DHT22;17010;51.306;3.150;2023-05-07T11:09:01;19.80;99.90
30206;DHT22;17010;51.306;3.150;2023-05-07T11:14:46;20.00;99.90
30206;DHT22;17010;51.306;3.150;2023-05-07T11:21:41;20.50;99.90
30206;DHT22;17010;51.306;3.150;2023-05-07T11:28:22;21.20;99.90
30206;DHT22;17010;51.306;3.150;2023-05-07T11:36:31;23.20;99.90
30206;DHT22;17010;51.306;3.150;2023-05-07T11:39:49;23.40;99.90
30206;DHT22;17010;51.306;3.150;2023-05-07T11:42:39;23.30;99.90
30206;DHT22;17010;51.306;3.150;2023-05-07T11:45:47;23.60;99.90
30206;DHT22;17010;51.306;3.150;2023-05-07T12:35:55;21.70;99.90
30206;DHT22;17010;51.306;3.150;2023-05-07T12:39:04;22.40;99.90
30206;DHT22;17010;51.306;3.150;2023-05-07T12:52:47;22.40;99.90
30206;DHT22;17010;51.306;3.150;2023-05-07T13:06:04;21.00;99.90
30206;DHT22;17010;51.306;3.150;2023-05-07T13:09:06;21.10;99.90
30206;DHT22;17010;51.306;3.150;2023-05-07T13:12:25;20.70;99.90
30206;DHT22;17010;51.306;3.150;2023-05-07T13:15:31;20.80;99.90
30206;DHT22;17010;51.306;3.150;2023-05-07T13:18:43;20.60;99.90
30206;DHT22;17010;51.306;3.150;2023-05-07T13:25:30;20.20;99.90
30206;DHT22;17010;51.306;3.150;2023-05-07T13:29:07;20.50;99.90
30206;DHT22;17010;51.306;3.150;2023-05-07T13:32:18;20.50;99.90
30206;DHT22;17010;51.306;3.150;2023-05-07T13:35:23;20.30;99.90
30206;DHT22;17010;51.306;3.150;2023-05-07T13:38:03;19.90;99.90
30206;DHT22;17010;51.306;3.150;2023-05-07T13:40:36;19.30;99.90
30206;DHT22;17010;51.306;3.150;2023-05-07T13:43:02;18.90;99.90
30206;DHT22;17010;51.306;3.150;2023-05-07T13:45:29;18.80;99.90
30206;DHT22;17010;51.306;3.150;2023-05-07T13:47:57;18.80;99.90
30206;DHT22;17010;51.306;3.150;2023-05-07T13:50:24;19.00;99.90
30206;DHT22;17010;51.306;3.150;2023-05-07T13:52:52;19.30;99.90
30206;DHT22;17010;51.306;3.150;2023-05-07T13:55:20;19.30;99.90
30206;DHT22;17010;51.306;3.150;2023-05-07T13:57:47;19.30;99.90
30206;DHT22;17010;51.306;3.150;2023-05-07T14:00:14;19.10;99.90
30206;DHT22;17010;51.306;3.150;2023-05-07T14:02:43;19.00;99.90
30206;DHT22;17010;51.306;3.150;2023-05-07T14:05:10;18.90;99.90
30206;DHT22;17010;51.306;3.150;2023-05-07T14:07:36;18.80;99.90
30206;DHT22;17010;51.306;3.150;2023-05-07T14:10:04;18.50;99.90
30206;DHT22;17010;51.306;3.150;2023-05-07T14:12:32;18.30;99.90
30206;DHT22;17010;51.306;3.150;2023-05-07T14:14:59;18.20;99.90
30206;DHT22;17010;51.306;3.150;2023-05-07T14:17:25;18.20;99.90
30206;DHT22;17010;51.306;3.150;2023-05-07T14:19:53;18.30;99.90
30206;DHT22;17010;51.306;3.150;2023-05-07T14:22:23;18.40;99.90
30206;DHT22;17010;51.306;3.150;2023-05-07T14:24:49;18.60;99.90
30206;DHT22;17010;51.306;3.150;2023-05-07T14:27:16;18.80;99.90
30206;DHT22;17010;51.306;3.150;2023-05-07T14:29:43;19.00;99.90
30206;DHT22;17010;51.306;3.150;2023-05-07T14:32:11;19.10;99.90
30206;DHT22;17010;51.306;3.150;2023-05-07T14:34:41;19.00;99.90
30206;DHT22;17010;51.306;3.150;2023-05-07T14:37:08;18.90;99.90
30206;DHT22;17010;51.306;3.150;2023-05-07T14:39:37;18.90;99.90
30206;DHT22;17010;51.306;3.150;2023-05-07T14:42:05;18.80;99.90
30206;DHT22;17010;51.306;3.150;2023-05-07T14:44:36;18.80;99.90
30206;DHT22;17010;51.306;3.150;2023-05-07T14:47:02;18.80;99.90
30206;DHT22;17010;51.306;3.150;2023-05-07T14:49:29;18.60;99.90
30206;DHT22;17010;51.306;3.150;2023-05-07T14:51:57;18.50;99.90
30206;DHT22;17010;51.306;3.150;2023-05-07T14:54:25;18.70;99.90
30206;DHT22;17010;51.306;3.150;2023-05-07T14:56:51;18.60;99.90
30206;DHT22;17010;51.306;3.150;2023-05-07T14:59:18;18.60;99.90
30206;DHT22;17010;51.306;3.150;2023-05-07T15:01:47;18.30;99.90
30206;DHT22;17010;51.306;3.150;2023-05-07T15:04:13;18.40;99.90
30206;DHT22;17010;51.306;3.150;2023-05-07T15:06:40;18.50;99.90
30206;DHT22;17010;51.306;3.150;2023-05-07T15:09:06;18.20;99.90
30206;DHT22;17010;51.306;3.150;2023-05-07T15:11:34;18.00;99.90
30206;DHT22;17010;51.306;3.150;2023-05-07T15:14:00;17.70;99.90
30206;DHT22;17010;51.306;3.150;2023-05-07T15:16:26;17.40;99.90
30206;DHT22;17010;51.306;3.150;2023-05-07T15:18:53;17.10;99.90
30206;DHT22;17010;51.306;3.150;2023-05-07T15:21:19;17.00;99.90
30206;DHT22;17010;51.306;3.150;2023-05-07T15:23:45;16.90;99.90
30206;DHT22;17010;51.306;3.150;2023-05-07T15:26:12;16.80;99.90
30206;DHT22;17010;51.306;3.150;2023-05-07T15:28:38;16.80;99.90
30206;DHT22;17010;51.306;3.150;2023-05-07T15:31:06;16.90;99.90
30206;DHT22;17010;51.306;3.150;2023-05-07T15:33:33;16.80;99.90
30206;DHT22;17010;51.306;3.150;2023-05-07T15:35:59;16.80;99.90
30206;DHT22;17010;51.306;3.150;2023-05-07T15:38:26;16.70;99.90
30206;DHT22;17010;51.306;3.150;2023-05-07T15:40:52;16.80;99.90
30206;DHT22;17010;51.306;3.150;2023-05-07T15:43:19;16.80;99.90
30206;DHT22;17010;51.306;3.150;2023-05-07T15:45:45;16.80;99.90
30206;DHT22;17010;51.306;3.150;2023-05-07T15:48:11;16.90;99.90
30206;DHT22;17010;51.306;3.150;2023-05-07T15:50:38;16.80;99.90
30206;DHT22;17010;51.306;3.150;2023-05-07T15:53:04;16.80;99.90
30206;DHT22;17010;51.306;3.150;2023-05-07T15:55:32;16.60;99.90
30206;DHT22;17010;51.306;3.150;2023-05-07T15:57:59;16.60;99.90
30206;DHT22;17010;51.306;3.150;2023-05-07T16:00:26;16.60;99.90
30206;DHT22;17010;51.306;3.150;2023-05-07T16:02:55;16.50;99.90
30206;DHT22;17010;51.306;3.150;2023-05-07T16:05:21;16.50;99.90
30206;DHT22;17010;51.306;3.150;2023-05-07T16:07:49;16.50;99.90
30206;DHT22;17010;51.306;3.150;2023-05-07T16:10:16;16.50;99.90
30206;DHT22;17010;51.306;3.150;2023-05-07T16:12:43;16.40;99.90
30206;DHT22;17010;51.306;3.150;2023-05-07T16:15:09;16.30;99.90
30206;DHT22;17010;51.306;3.150;2023-05-07T16:17:35;16.30;99.90
30206;DHT22;17010;51.306;3.150;2023-05-07T16:20:02;16.40;99.90
30206;DHT22;17010;51.306;3.150;2023-05-07T16:22:32;16.40;99.90
30206;DHT22;17010;51.306;3.150;2023-05-07T16:24:58;16.40;99.90
30206;DHT22;17010;51.306;3.150;2023-05-07T16:27:24;16.50;99.90
30206;DHT22;17010;51.306;3.150;2023-05-07T16:29:50;16.40;99.90
30206;DHT22;17010;51.306;3.150;2023-05-07T16:32:17;16.30;99.90
30206;DHT22;17010;51.306;3.150;2023-05-07T16:34:43;16.20;99.90
30206;DHT22;17010;51.306;3.150;2023-05-07T16:37:11;16.20;99.90
30206;DHT22;17010;51.306;3.150;2023-05-07T16:39:38;16.10;99.90
30206;DHT22;17010;51.306;3.150;2023-05-07T16:42:04;16.10;99.90
30206;DHT22;17010;51.306;3.150;2023-05-07T16:44:30;16.10;99.90
30206;DHT22;17010;51.306;3.150;2023-05-07T16:46:56;16.10;99.90
30206;DHT22;17010;51.306;3.150;2023-05-07T16:49:23;16.10;99.90
30206;DHT22;17010;51.306;3.150;2023-05-07T16:51:49;16.00;99.90
30206;DHT22;17010;51.306;3.150;2023-05-07T16:54:16;15.90;99.90
30206;DHT22;17010;51.306;3.150;2023-05-07T16:56:45;15.80;99.90
30206;DHT22;17010;51.306;3.150;2023-05-07T16:59:12;15.70;99.90
30206;DHT22;17010;51.306;3.150;2023-05-07T17:01:38;15.70;99.90
30206;DHT22;17010;51.306;3.150;2023-05-07T17:04:04;15.70;99.90
30206;DHT22;17010;51.306;3.150;2023-05-07T17:06:30;15.60;99.90
30206;DHT22;17010;51.306;3.150;2023-05-07T17:08:57;15.50;99.90
30206;DHT22;17010;51.306;3.150;2023-05-07T17:11:23;15.50;99.90
30206;DHT22;17010;51.306;3.150;2023-05-07T17:13:49;15.50;99.90
30206;DHT22;17010;51.306;3.150;2023-05-07T17:16:16;15.40;99.90
30206;DHT22;17010;51.306;3.150;2023-05-07T17:18:43;15.40;99.90
30206;DHT22;17010;51.306;3.150;2023-05-07T17:21:09;15.50;99.90
30206;DHT22;17010;51.306;3.150;2023-05-07T17:23:35;15.50;99.90
30206;DHT22;17010;51.306;3.150;2023-05-07T17:26:01;15.50;99.90
30206;DHT22;17010;51.306;3.150;2023-05-07T17:28:28;15.50;99.90
30206;DHT22;17010;51.306;3.150;2023-05-07T17:30:55;15.40;99.90
30206;DHT22;17010;51.306;3.150;2023-05-07T17:33:22;15.30;99.90
30206;DHT22;17010;51.306;3.150;2023-05-07T17:35:48;15.20;99.90
30206;DHT22;17010;51.306;3.150;2023-05-07T17:38:15;15.20;99.90
30206;DHT22;17010;51.306;3.150;2023-05-07T17:40:41;15.10;99.90
30206;DHT22;17010;51.306;3.150;2023-05-07T17:43:08;15.10;99.90
30206;DHT22;17010;51.306;3.150;2023-05-07T17:45:34;15.10;99.90
30206;DHT22;17010;51.306;3.150;2023-05-07T17:48:01;15.10;99.90
30206;DHT22;17010;51.306;3.150;2023-05-07T17:50:27;15.00;99.90
30206;DHT22;17010;51.306;3.150;2023-05-07T17:52:54;15.00;99.90
30206;DHT22;17010;51.306;3.150;2023-05-07T17:55:20;15.00;99.90
30206;DHT22;17010;51.306;3.150;2023-05-07T17:57:46;15.00;99.90
30206;DHT22;17010;51.306;3.150;2023-05-07T18:00:13;15.00;99.90
30206;DHT22;17010;51.306;3.150;2023-05-07T18:02:40;15.00;99.90
30206;DHT22;17010;51.306;3.150;2023-05-07T18:05:07;15.10;99.90